MET'MAP v2.0
soon released !

Expected late october,
this new version will be
more efficient, smarter,
and hosted on a brand new
server x3 powerfull...
...and still free !


Not compatible ?
Try the mobile version !

LOG IN : | Subscribe | Disclaimer | Who is Orbifly ? |
ICAO code :

TAF - DABS Cheikh Larbi Tebessi - 25 May 2020 23:34 UTC - Data Source NOAA   


- Airport Elevation : 2661 ft
- IATA code : TEE
- No reported NOTAMs.


DABS - Cheikh Larbi Tebessi

Latest METAR recorded : 2015/08/11 08:00 DABS 110800Z 34012KT 9999 SCT040 24/17 Q1018
TAF TAF DABS
Valid from the 25 at 18:00 until the 26 at 18:00 UTC


251700Z 2518/2618 30008KT 9999 FEW033 SCT100
TEMPO 2612/2618 36012KT FEW030TCU

Source NOAA


MET'MAP, your aeronautical weather chart ! - Copyright ORBIFLY December 2007

Programming & Development : Alexandra Zaïnal
Co-Developer : Marc-Olivier Méhu
Technical & hardware support : Manuel Goepfert
Concept & Financing : Baudouin d'Aumeries